Relevés horaires Melle (Belgique)


Relevés horaires à Melle - Mardi 27 Oct. 2015
Heure UTC1 Température [°C] Vent [km/h] Hum. [%] Pres.4 [hPa] Visi. [Km] Nébu. [octa] Préc.5 [mm] Cond.
2m. Res. Ros. Dir.2 Vit. Moy. Raf.3
23:00 12.2 12.2 10.2 ESE 3.7 5.6 7.4 88 1011.4(-0.5/3h) -- -- -- --
22:00 12.6 12.6 10.4 ESE 5.6 5.6 7.4 86 1011.7(-0.6/3h) -- -- -- --
21:00 12.9 12.9 10.7 ESE 5.6 5.6 7.4 86 1011.8(-0.5/3h) -- -- -- --
20:00 12.6 12.6 10.1 SE 3.7 3.7 5.6 85 1011.9(-0.4/3h) -- -- -- --
19:00 13.1 13.1 10.6 ESE 3.7 3.7 3.7 85 1012.3(-0.1/3h) -- -- -- --
18:00 14.4 14.4 10.7 E 3.7 7.4 11.1 78 1012.3(-0.3/3h) -- -- 0.1/12h
--
17:00 15.2 15.2 10.9 SE 3.7 5.6 5.6 75 1012.3(-0.6/3h) -- -- -- --
16:00 15.9 15.9 11.2 ESE 3.7 5.6 7.4 74 1012.4(-0.8/3h) -- -- -- --
15:00 16.2 16.2 10.9 SE 5.6 7.4 11.1 71 1012.6(-1.2/3h) -- -- -- --
14:00 16.4 16.4 10.7 SE 5.6 7.4 11.1 69 1012.9(-1.4/3h) -- -- -- --
13:00 16.6 16.6 10.5 SE 5.6 7.4 9.3 67 1013.2(-1.5/3h) -- -- -- --
12:00 17.3 17.3 10.7 SE 5.6 7.4 11.1 65 1013.8(-1.0/3h) -- -- 0.1/6h
--
11:00 16.5 16.5 10.6 SE 5.6 7.4 11.1 68 1014.3(-0.6/3h) -- -- -- --
10:00 14.9 14.9 10.7 SSE 5.6 7.4 11.1 76 1014.7(0.1/3h) -- -- -- --
09:00 12.8 12.8 11.2 SE 5.6 5.6 9.3 90 1014.8(0.4/3h) -- -- -- --
08:00 9.4 9.4 8.7 ENE 1.9 3.7 5.6 95 1014.9(0.2/3h) -- -- -- --
07:00 6.7 6.7 6.0 E 1.9 5.6 5.6 95 1014.6(-0.2/3h) -- -- -- --
06:00 6.5 6.5 5.8 E 3.7 5.6 5.6 95 1014.4(-0.7/3h) -- -- 0.2/12h
--
05:00 6.7 6.7 6.0 E 3.7 5.6 5.6 95 1014.7(-0.5/3h) -- -- -- --
04:00 6.6 6.6 5.8 E 3.7 3.7 5.6 95 1014.8(-0.8/3h) -- -- -- --
03:00 6.3 6.3 5.4 ENE 3.7 5.6 5.6 94 1015.1(-0.6/3h) -- -- -- --
02:00 6.6 6.6 5.7 ENE 3.7 3.7 5.6 94 1015.2(-0.7/3h) -- -- -- --
01:00 7.7 7.7 6.7 E 1.9 5.6 5.6 93 1015.6(-0.5/3h) -- -- -- --
00:00 8.4 7.7 7.3 E 5.6 5.6 7.4 93 1015.7(-0.4/3h) -- -- 0/0h
0/6h
--

1 Coordinated Universal Time. Actuellement il est 02:00 locale et 00:00 UTC.

2 Le vent souffle depuis la direction indiquée vers la direction oposée.

3 Les rafales max. sont disponible 40 min après l'heure du relevé.

4 Pour les stations d'altitude (plus de 600m) le géopotentiel du niveau le plus proche de la pression obligatoire est indiqué.

5 Les stations disposant d'un diffuseur peuvent indiquer "trace". Cela signifie que des précipitations ont touchés le sol mais que la quantité est inférieure à 0.1 mm.

Récapitulatif de la journée
Température [°C] Vent [km/h] Ensoleillement4 [h] Precipitations totale5 [mm] Pression [Hpa]
Min1 Max.2 Moy.3 Max. Min Max.
6.3 17.7 5.7 11.1 0 h 0 min 0 1011.4 1015.7

1 Température minimale relevée entre 18:00 UTC la veille et 18:00 UTC le jour donné.

2 Température maximale relevée entre 06:00 UTC le jour donné et 06:00 UTC le lendemain.

3 Vent moyen de la journée basé sur les relevés horaires.

4 Ensoleillement en heures relevé entre 06:00 UTC la veille et 06:00 UTC le jour donné.

5 Précipitations totales tombées entre 06:00 UTC la jour donné et 06:00 UTC le lendemain.

Graphiques horaires